Hlavní strana
METAR-TAF:

METAR-TAF

Letiště :

Mezinárodní letiště Dauhá

Dauhá, Katar

zeměpisná šířka: 25-15-40N, zeměpisná délka: 051-33-54E, výška: 11 m

Aktuální stav počasí

Zpráva byla vytvořena před 28 minutami, v 00:00 UTC
Severní vítr 5 kt
Teplota 27°C
Vlhkost vzduchu 70%
Tlak 1006 hPa
Viditelnost 10 km a více
Žádná oblačnost pod 1500 m, nevyskytují se cumulonimby.

METAR: OTBD 200000Z AUTO 36005KT CAVOK 27/21 Q1006 NOSIG

Čas: 03:28 (00:28 UTC)

Předpověď počasí

Zpráva byla vytvořena před 1 hodinou a 29 minutami, v 22:59 UTC
Předpověď platná od 19 v 00 UTC do 20 v 06 UTC
Jihovýchodní vítr 14 kt
Viditelnost 10 km a více
Žádná oblačnost pod 1500 m, nevyskytují se cumulonimby.
Dočasný
od 19 v 03 UTC do 19 v 09 UTC
Jižní vítr 16 kt
Změna
od 19 v 23 UTC do 20 v 01 UTC
Severovýchodní vítr 10 kt

TAF: OTBD 182259Z 1900/2006 13014KT CAVOK TEMPO 1903/1909 18016KT BECMG 1923/2001 05010KT

Stav a předpovědi počasí z více než 4 000 letišť (zprávy METAR a TAF).

Červené a žluté tečky na mapě představují dostupné meteorologické stanice.

Když kurzor umístíte na tečku, zobrazí se název stanice.

Pak kliknutím zobrazíte stav a předpověď počasí.

Chcete-li změnit mapu, kliknutím na zelené tlačítko se znaménkem +mapu přiblížíte, kliknutím na zelené tlačítko se znaménkem – mapu oddálíte a kliknutím na zelené šipky přejdete na sousední mapy.


METAR-TAF: